KFTW/FTW METAR and TAF weather

Enter ICAO airport designator
Station Type Date Time Source
KFTW METAR 2022/09/26 08:53 UTC NOAA

KFTW 260853Z AUTO 02014KT 10SM CLR 21/10 A3006 RMK AO2 SLP168 T02110100 52004


Station Type Date Time Source
KFTW Decoded METAR 2022/09/26 08:53 UTC NOAA

FORT WORTH MEACHAM INTERNATIONAL ., TX, United States (KFTW) 32-50N 097-22W 214M
Sep 26, 2022 - 04:53 AM EDT / 2022.09.26 0853 UTC
Wind: from the NNE (020 degrees) at 16 MPH (14 KT):0
Visibility: 10 mile(s):0
Sky conditions: clear
Temperature: 70.0 F (21.1 C)
Dew Point: 50.0 F (10.0 C)
Relative Humidity: 49%
Pressure (altimeter): 30.06 in. Hg (1017 hPa)
Pressure tendency: 0.01 inches (0.4 hPa) higher than three hours ago
ob: KFTW 260853Z AUTO 02014KT 10SM CLR 21/10 A3006 RMK AO2 SLP168 T02110100 52004
cycle: 9

Station Type Date Time Source
KFTW TAF 2022/09/26 09:58 UTC NOAA

TAF
AMD KFTW 260857Z 2609/2706 03011KT P6SM SKC
FM270300 VRB03KT P6SM SKC

Example: see airport list